createdAt,value
2022-09-29T00:02:22.478Z,7.86
2022-09-29T00:04:49.161Z,8.04
2022-09-29T00:07:15.977Z,8.06
2022-09-29T00:09:42.640Z,7.89
2022-09-29T00:12:09.239Z,7.73
2022-09-29T00:14:35.927Z,7.69
2022-09-29T00:17:03.014Z,7.67
2022-09-29T00:19:29.826Z,7.71
2022-09-29T00:21:56.565Z,7.61
2022-09-29T00:24:23.341Z,7.57
2022-09-29T00:26:50.595Z,7.68
2022-09-29T00:29:17.379Z,7.78
2022-09-29T00:31:44.824Z,7.74
2022-09-29T00:34:11.533Z,7.64
2022-09-29T00:36:38.680Z,7.49
2022-09-29T00:39:05.508Z,7.42
2022-09-29T00:41:33.969Z,7.63
2022-09-29T00:44:09.773Z,7.80
2022-09-29T00:46:52.472Z,8.02
2022-09-29T00:50:04.278Z,8.02
2022-09-29T00:52:37.629Z,8.04
2022-09-29T00:55:07.706Z,7.99
2022-09-29T00:57:40.633Z,7.69
2022-09-29T01:00:11.737Z,7.48
2022-09-29T01:02:53.475Z,7.58
2022-09-29T01:05:33.963Z,7.70
2022-09-29T01:08:15.288Z,7.64
2022-09-29T01:10:43.880Z,7.61
2022-09-29T01:13:11.332Z,7.49
2022-09-29T01:15:38.353Z,7.46
2022-09-29T01:18:07.146Z,7.53
2022-09-29T01:20:41.118Z,7.45
2022-09-29T01:23:29.886Z,7.71
2022-09-29T01:26:14.840Z,7.66
2022-09-29T01:29:05.032Z,7.75
2022-09-29T01:31:41.308Z,7.70
2022-09-29T01:34:40.749Z,7.79
2022-09-29T01:37:13.458Z,7.68
2022-09-29T01:40:01.905Z,7.43
2022-09-29T01:42:46.070Z,7.67
2022-09-29T01:45:18.835Z,7.73
2022-09-29T01:47:55.492Z,7.90
2022-09-29T01:50:35.002Z,7.90
2022-09-29T01:53:09.827Z,7.90
2022-09-29T01:55:42.382Z,7.75
2022-09-29T01:58:21.002Z,7.69
2022-09-29T02:00:54.659Z,7.60
2022-09-29T02:03:56.847Z,7.42
2022-09-29T02:06:32.961Z,7.52
2022-09-29T02:09:03.917Z,7.42
2022-09-29T02:11:33.644Z,7.49
2022-09-29T02:14:00.276Z,7.71
2022-09-29T02:16:31.236Z,7.85
2022-09-29T02:19:38.852Z,7.85
2022-09-29T02:22:05.605Z,7.86
2022-09-29T02:24:32.461Z,7.90
2022-09-29T02:26:59.543Z,7.70
2022-09-29T02:29:27.236Z,7.47
2022-09-29T02:32:01.907Z,7.44
2022-09-29T02:34:35.884Z,7.17
2022-09-29T02:37:10.731Z,7.21
2022-09-29T02:40:06.978Z,7.11
2022-09-29T02:42:45.172Z,7.11
2022-09-29T02:45:36.753Z,7.48
2022-09-29T02:48:32.267Z,7.77
2022-09-29T02:51:21.895Z,7.70
2022-09-29T02:54:13.402Z,7.77
2022-09-29T02:57:05.851Z,7.77
2022-09-29T02:59:54.419Z,7.59
2022-09-29T03:02:26.327Z,7.66
2022-09-29T03:04:54.262Z,7.54
2022-09-29T03:07:22.572Z,7.63
2022-09-29T03:09:49.268Z,7.78
2022-09-29T03:12:17.589Z,7.38
2022-09-29T03:14:44.592Z,7.58
2022-09-29T03:17:11.206Z,7.56
2022-09-29T03:19:38.084Z,7.54
2022-09-29T03:22:04.824Z,7.43
2022-09-29T03:24:31.897Z,7.47
2022-09-29T03:27:01.490Z,7.29
2022-09-29T03:29:28.877Z,7.42
2022-09-29T03:32:00.635Z,7.63
2022-09-29T03:34:27.687Z,7.98
2022-09-29T03:36:55.625Z,7.60
2022-09-29T03:39:22.391Z,7.66
2022-09-29T03:41:49.213Z,7.80
2022-09-29T03:44:18.784Z,7.97
2022-09-29T03:46:47.268Z,7.91
2022-09-29T03:49:18.287Z,7.95
2022-09-29T03:51:45.124Z,7.83
2022-09-29T03:54:12.524Z,8.22
2022-09-29T03:56:39.260Z,8.18
2022-09-29T03:59:08.634Z,8.26
2022-09-29T04:01:36.088Z,8.31
2022-09-29T04:04:03.614Z,7.94
2022-09-29T04:06:48.963Z,8.02
2022-09-29T04:09:20.768Z,7.87
2022-09-29T04:12:00.176Z,8.03
2022-09-29T04:15:03.020Z,7.96
2022-09-29T04:18:10.682Z,8.00
2022-09-29T04:20:38.046Z,7.87
2022-09-29T04:23:04.704Z,7.86
2022-09-29T04:25:31.546Z,7.73
2022-09-29T04:27:58.201Z,7.74
2022-09-29T04:30:25.074Z,7.75
2022-09-29T04:32:51.770Z,7.60
2022-09-29T04:36:04.751Z,7.62
2022-09-29T04:38:33.104Z,7.31
2022-09-29T04:41:06.297Z,7.35
2022-09-29T04:43:33.520Z,6.84
2022-09-29T04:46:05.665Z,6.72
2022-09-29T04:48:35.606Z,6.78
2022-09-29T04:51:03.633Z,6.85
2022-09-29T04:53:30.689Z,6.89
2022-09-29T04:56:00.336Z,6.52
2022-09-29T04:58:27.122Z,6.34
2022-09-29T05:00:55.853Z,6.50
2022-09-29T05:03:26.120Z,6.43
2022-09-29T05:05:59.682Z,6.49
2022-09-29T05:08:26.455Z,6.71
2022-09-29T05:10:54.508Z,6.67
2022-09-29T05:13:24.836Z,6.65
2022-09-29T05:16:00.260Z,6.51
2022-09-29T05:18:27.406Z,6.86
2022-09-29T05:21:23.389Z,6.81
2022-09-29T05:23:48.845Z,6.83
2022-09-29T05:26:15.539Z,7.12
2022-09-29T05:28:47.565Z,7.20
2022-09-29T05:31:15.322Z,7.24
2022-09-29T05:33:42.135Z,7.32
2022-09-29T05:36:09.267Z,7.36
2022-09-29T05:38:37.055Z,7.37
2022-09-29T05:41:12.161Z,7.37
2022-09-29T05:43:40.450Z,7.39
2022-09-29T05:46:09.015Z,7.27
2022-09-29T05:48:35.868Z,7.39
2022-09-29T05:51:13.167Z,7.58
2022-09-29T05:54:54.847Z,7.64
2022-09-29T06:02:56.047Z,7.40
2022-09-29T06:06:50.349Z,7.27
2022-09-29T06:19:28.296Z,8.29
2022-09-29T06:22:10.791Z,8.17
2022-09-29T06:25:02.070Z,8.66
2022-09-29T06:28:04.121Z,8.86
2022-09-29T06:30:43.009Z,8.58
2022-09-29T06:33:21.905Z,8.91
2022-09-29T06:37:23.682Z,9.16
2022-09-29T06:40:13.785Z,8.97
2022-09-29T06:46:37.036Z,9.05
2022-09-29T06:49:57.152Z,9.47
2022-09-29T06:53:02.801Z,9.34
2022-09-29T06:56:03.880Z,9.52
2022-09-29T06:58:34.562Z,9.76
2022-09-29T07:01:06.700Z,10.33
2022-09-29T07:03:39.315Z,10.32
2022-09-29T07:06:19.394Z,10.09
2022-09-29T07:08:47.282Z,10.43
2022-09-29T07:11:17.210Z,10.18
2022-09-29T07:13:45.083Z,10.71
2022-09-29T07:19:11.982Z,10.71
2022-09-29T07:22:02.479Z,10.63
2022-09-29T07:24:33.631Z,10.23
2022-09-29T07:27:04.887Z,10.15
2022-09-29T07:29:35.864Z,10.43
2022-09-29T07:32:03.097Z,10.37
2022-09-29T07:34:40.253Z,10.42
2022-09-29T07:37:19.403Z,10.37
2022-09-29T07:40:20.419Z,10.48
2022-09-29T07:42:59.825Z,10.66
2022-09-29T07:45:26.636Z,10.84
2022-09-29T07:47:56.177Z,10.87
2022-09-29T07:50:23.212Z,10.98
2022-09-29T07:52:51.683Z,10.97
2022-09-29T07:55:18.457Z,11.14
2022-09-29T07:57:47.287Z,11.12
2022-09-29T08:00:14.335Z,11.06
2022-09-29T08:02:41.173Z,11.03
2022-09-29T08:05:08.765Z,11.47
2022-09-29T08:07:35.555Z,11.66
2022-09-29T08:10:14.289Z,11.52
2022-09-29T08:12:44.493Z,11.66
2022-09-29T08:15:11.546Z,11.42
2022-09-29T08:17:38.496Z,11.48
2022-09-29T08:20:05.477Z,11.41
2022-09-29T08:22:32.183Z,11.52
2022-09-29T08:24:59.843Z,11.52
2022-09-29T08:27:26.584Z,11.61
2022-09-29T08:29:53.517Z,11.77
2022-09-29T08:32:20.208Z,12.04
2022-09-29T08:34:46.760Z,12.25
2022-09-29T08:37:13.388Z,12.26
2022-09-29T08:39:40.965Z,12.54
2022-09-29T08:42:26.578Z,12.51
2022-09-29T08:45:15.535Z,12.37
2022-09-29T08:47:49.595Z,12.12
2022-09-29T08:50:35.438Z,12.11
2022-09-29T08:53:22.010Z,12.58
2022-09-29T08:56:15.176Z,13.03
2022-09-29T08:58:44.804Z,13.35
2022-09-29T09:01:23.928Z,12.74
2022-09-29T09:04:22.991Z,13.19
2022-09-29T09:07:15.945Z,13.62
2022-09-29T09:10:00.830Z,13.73
2022-09-29T09:12:48.564Z,13.74
2022-09-29T09:15:40.973Z,13.72
2022-09-29T09:18:35.339Z,14.02
2022-09-29T09:21:09.288Z,14.05
2022-09-29T09:23:59.842Z,14.27
2022-09-29T09:26:47.822Z,14.00
2022-09-29T09:29:14.408Z,14.53
2022-09-29T09:31:51.248Z,14.87
2022-09-29T09:34:40.224Z,15.02
2022-09-29T09:37:34.842Z,14.37
2022-09-29T09:40:21.461Z,14.67
2022-09-29T09:43:00.020Z,15.36
2022-09-29T09:45:50.479Z,15.01
2022-09-29T09:48:29.439Z,15.51
2022-09-29T09:51:12.136Z,16.10
2022-09-29T09:53:43.115Z,15.43
2022-09-29T09:56:28.114Z,15.34
2022-09-29T09:59:18.119Z,15.86
2022-09-29T10:01:45.889Z,16.82
2022-09-29T10:04:13.500Z,16.61
2022-09-29T10:06:41.068Z,16.27
2022-09-29T10:09:14.834Z,16.68
2022-09-29T10:11:42.923Z,17.39
2022-09-29T10:14:19.481Z,17.69
2022-09-29T10:16:57.193Z,18.20
2022-09-29T10:19:44.563Z,17.83
2022-09-29T10:22:15.372Z,18.22
2022-09-29T10:24:42.076Z,18.45
2022-09-29T10:27:10.856Z,17.63
2022-09-29T10:29:44.416Z,16.70
2022-09-29T10:32:21.994Z,16.94
2022-09-29T10:35:07.949Z,16.99
2022-09-29T10:37:39.030Z,17.48
2022-09-29T10:40:08.572Z,17.27
2022-09-29T10:42:37.764Z,17.58
2022-09-29T10:45:07.519Z,18.03
2022-09-29T10:47:34.328Z,18.34
2022-09-29T10:50:18.489Z,17.93
2022-09-29T10:52:52.284Z,16.58
2022-09-29T10:55:23.316Z,16.17
2022-09-29T10:57:51.993Z,16.19
2022-09-29T11:00:31.705Z,16.49
2022-09-29T11:03:07.568Z,17.05
2022-09-29T11:05:36.291Z,17.99
2022-09-29T11:08:03.524Z,18.33
2022-09-29T11:10:36.886Z,18.80
2022-09-29T11:13:26.903Z,19.29
2022-09-29T11:16:02.929Z,19.51
2022-09-29T11:18:35.938Z,19.34
2022-09-29T11:21:28.495Z,19.72
2022-09-29T11:24:01.287Z,19.89
2022-09-29T11:26:43.984Z,19.75
2022-09-29T11:29:32.359Z,20.11
2022-09-29T11:32:03.623Z,20.05
2022-09-29T11:34:37.855Z,19.67
2022-09-29T11:37:16.358Z,19.54
2022-09-29T11:39:53.829Z,19.68
2022-09-29T11:42:32.908Z,19.54
2022-09-29T11:45:01.439Z,19.35
2022-09-29T11:47:55.694Z,18.94
2022-09-29T11:50:45.073Z,19.25
2022-09-29T11:53:18.818Z,20.00
2022-09-29T11:56:31.943Z,20.42
2022-09-29T11:59:37.537Z,20.39
2022-09-29T12:02:38.974Z,20.67
2022-09-29T12:05:18.644Z,19.91
2022-09-29T12:08:22.930Z,19.37
2022-09-29T12:11:13.054Z,20.11
2022-09-29T12:14:16.261Z,20.19
2022-09-29T12:17:02.367Z,20.24
2022-09-29T12:19:33.829Z,20.22
2022-09-29T12:22:03.520Z,20.25
2022-09-29T12:24:42.182Z,19.85
2022-09-29T12:27:30.595Z,20.18
2022-09-29T12:30:05.124Z,20.46
2022-09-29T12:32:37.455Z,20.50
2022-09-29T12:35:17.248Z,20.51
2022-09-29T12:37:53.583Z,20.48
2022-09-29T12:40:25.997Z,20.79
2022-09-29T12:43:11.664Z,20.99
2022-09-29T12:45:51.760Z,21.21
2022-09-29T12:48:27.672Z,19.72
2022-09-29T12:51:17.934Z,19.98
2022-09-29T12:54:17.506Z,20.08
2022-09-29T12:56:55.144Z,19.74
2022-09-29T12:59:44.535Z,19.97
2022-09-29T13:02:37.441Z,20.19
2022-09-29T13:05:19.479Z,20.31
2022-09-29T13:07:55.233Z,20.49
2022-09-29T13:10:57.056Z,20.32
2022-09-29T13:13:39.776Z,20.32
2022-09-29T13:16:32.249Z,20.75
2022-09-29T13:19:26.151Z,20.74
2022-09-29T13:22:25.070Z,20.65
2022-09-29T13:25:24.171Z,20.19
2022-09-29T13:27:53.960Z,20.41
2022-09-29T13:30:25.849Z,20.30
2022-09-29T13:33:20.925Z,20.37
2022-09-29T13:35:50.477Z,20.64
2022-09-29T13:38:22.311Z,20.89
2022-09-29T13:41:17.390Z,20.69
2022-09-29T13:43:50.293Z,20.99
2022-09-29T13:46:26.272Z,20.66
2022-09-29T13:49:01.962Z,20.46
2022-09-29T13:51:40.279Z,20.58
2022-09-29T13:54:22.107Z,20.69
2022-09-29T13:57:13.518Z,20.98
2022-09-29T13:59:56.672Z,21.17
2022-09-29T14:02:44.827Z,20.98
2022-09-29T14:05:23.927Z,20.74
2022-09-29T14:07:50.519Z,20.23
2022-09-29T14:10:20.674Z,20.58
2022-09-29T14:12:53.776Z,20.81
2022-09-29T14:15:21.563Z,20.45
2022-09-29T14:17:55.693Z,20.61
2022-09-29T14:20:33.059Z,20.87
2022-09-29T14:23:08.313Z,20.87
2022-09-29T14:25:42.006Z,21.22
2022-09-29T14:28:42.195Z,21.07
2022-09-29T14:31:20.719Z,21.29
2022-09-29T14:33:50.036Z,21.47
2022-09-29T14:36:20.988Z,20.98
2022-09-29T14:39:21.560Z,21.09
2022-09-29T14:41:46.444Z,20.60
2022-09-29T14:44:27.065Z,20.61
2022-09-29T14:47:38.317Z,20.07
2022-09-29T14:50:51.384Z,19.66
2022-09-29T14:53:27.285Z,18.92
2022-09-29T14:56:09.732Z,19.36
2022-09-29T14:58:58.373Z,19.47
2022-09-29T15:01:31.813Z,19.32
2022-09-29T15:04:14.603Z,18.94
2022-09-29T15:06:52.315Z,18.95
2022-09-29T15:09:25.710Z,18.99
2022-09-29T15:11:56.626Z,18.48
2022-09-29T15:14:28.392Z,18.42
2022-09-29T15:17:32.453Z,17.89
2022-09-29T15:20:20.936Z,17.71
2022-09-29T15:22:59.642Z,17.66
2022-09-29T15:25:29.783Z,17.47
2022-09-29T15:28:39.049Z,16.99
2022-09-29T15:31:29.655Z,17.02
2022-09-29T15:33:56.864Z,16.71
2022-09-29T15:36:25.159Z,16.91
2022-09-29T15:39:33.758Z,16.99
2022-09-29T15:42:03.456Z,16.96
2022-09-29T15:44:33.955Z,17.14
2022-09-29T15:47:01.472Z,17.10
2022-09-29T15:49:29.551Z,16.69
2022-09-29T15:51:59.442Z,16.87
2022-09-29T15:54:33.727Z,16.80
2022-09-29T15:57:20.151Z,16.95
2022-09-29T15:59:53.312Z,16.88
2022-09-29T16:02:36.330Z,17.11
2022-09-29T16:05:07.452Z,16.67
2022-09-29T16:07:39.058Z,16.47
2022-09-29T16:10:14.254Z,16.19
2022-09-29T16:12:49.487Z,16.32
2022-09-29T16:15:28.931Z,16.43
2022-09-29T16:17:56.350Z,16.58
2022-09-29T16:20:32.080Z,16.56
2022-09-29T16:23:20.549Z,16.56
2022-09-29T16:26:07.137Z,16.58
2022-09-29T16:28:39.936Z,16.54
2022-09-29T16:31:22.823Z,16.47
2022-09-29T16:33:57.084Z,16.35
2022-09-29T16:36:36.839Z,16.20
2022-09-29T16:39:07.226Z,16.23
2022-09-29T16:41:36.765Z,16.07
2022-09-29T16:44:10.947Z,16.00
2022-09-29T16:46:48.434Z,16.02
2022-09-29T16:49:26.340Z,16.08
2022-09-29T16:51:56.524Z,15.98
2022-09-29T16:54:42.545Z,15.88
2022-09-29T16:57:10.902Z,15.90
2022-09-29T16:59:37.751Z,15.71
2022-09-29T17:02:10.585Z,15.59
2022-09-29T17:04:37.547Z,15.59
2022-09-29T17:07:05.769Z,15.67
2022-09-29T17:09:32.867Z,15.64
2022-09-29T17:12:00.113Z,15.34
2022-09-29T17:14:30.209Z,15.33
2022-09-29T17:16:57.327Z,15.36
2022-09-29T17:19:24.066Z,15.15
2022-09-29T17:21:52.889Z,14.85
2022-09-29T17:24:19.593Z,14.72
2022-09-29T17:27:05.320Z,14.85
2022-09-29T17:29:33.084Z,14.77
2022-09-29T17:32:02.484Z,14.91
2022-09-29T17:34:30.973Z,14.67
2022-09-29T17:37:00.667Z,14.77
2022-09-29T17:39:28.461Z,14.85
2022-09-29T17:41:55.131Z,14.75
2022-09-29T17:44:22.171Z,14.79
2022-09-29T17:46:49.548Z,14.79
2022-09-29T17:49:18.170Z,14.87
2022-09-29T17:51:44.978Z,14.73
2022-09-29T17:54:11.722Z,14.62
2022-09-29T17:56:42.017Z,14.46
2022-09-29T17:59:10.347Z,14.08
2022-09-29T18:01:38.438Z,14.19
2022-09-29T18:04:07.987Z,14.45
2022-09-29T18:06:37.611Z,14.35
2022-09-29T18:09:17.741Z,14.36
2022-09-29T18:11:45.226Z,14.27
2022-09-29T18:14:12.049Z,14.09
2022-09-29T18:16:38.652Z,13.77
2022-09-29T18:19:17.022Z,13.39
2022-09-29T18:21:43.878Z,13.56
2022-09-29T18:24:10.510Z,13.70
2022-09-29T18:26:37.275Z,13.76
2022-09-29T18:29:17.406Z,13.77
2022-09-29T18:31:44.169Z,13.88
2022-09-29T18:34:19.057Z,13.86
2022-09-29T18:36:46.405Z,13.41
2022-09-29T18:39:14.077Z,13.19
2022-09-29T18:41:40.778Z,12.96
2022-09-29T18:44:15.413Z,13.06
2022-09-29T18:46:44.511Z,12.94
2022-09-29T18:49:14.188Z,12.85
2022-09-29T18:51:40.851Z,12.95
2022-09-29T18:54:08.567Z,13.09
2022-09-29T18:56:35.807Z,12.96
2022-09-29T18:59:05.656Z,13.05
2022-09-29T19:01:32.458Z,12.83
2022-09-29T19:03:59.567Z,12.76
2022-09-29T19:06:26.454Z,12.66
2022-09-29T19:08:53.185Z,12.63
2022-09-29T19:11:22.756Z,12.57
2022-09-29T19:13:55.809Z,12.34
2022-09-29T19:16:24.559Z,12.55
2022-09-29T19:18:51.453Z,12.68
2022-09-29T19:21:20.978Z,12.75
2022-09-29T19:23:48.027Z,12.82
2022-09-29T19:26:19.013Z,12.86
2022-09-29T19:28:48.183Z,12.75
2022-09-29T19:31:19.438Z,12.71
2022-09-29T19:33:47.146Z,12.74
2022-09-29T19:36:17.502Z,12.69
2022-09-29T19:38:44.749Z,12.68
2022-09-29T19:41:14.297Z,12.72
2022-09-29T19:43:41.313Z,12.67
2022-09-29T19:46:10.408Z,12.69
2022-09-29T19:48:37.419Z,12.66
2022-09-29T19:51:23.602Z,12.61
2022-09-29T19:54:10.336Z,12.44
2022-09-29T19:56:40.340Z,12.40
2022-09-29T19:59:10.498Z,12.43
2022-09-29T20:01:38.945Z,12.40
2022-09-29T20:04:11.685Z,12.37
2022-09-29T20:06:39.872Z,12.34
2022-09-29T20:09:08.568Z,12.48
2022-09-29T20:11:37.910Z,12.55
2022-09-29T20:14:06.682Z,12.37
2022-09-29T20:16:41.458Z,12.31
2022-09-29T20:19:10.928Z,12.29
2022-09-29T20:21:40.427Z,12.30
2022-09-29T20:24:07.045Z,12.27
2022-09-29T20:26:33.562Z,12.39
2022-09-29T20:29:03.884Z,12.36
2022-09-29T20:31:31.691Z,12.29
2022-09-29T20:33:59.554Z,12.29
2022-09-29T20:36:27.285Z,12.07
2022-09-29T20:38:53.902Z,12.04
2022-09-29T20:41:20.435Z,12.09
2022-09-29T20:43:49.590Z,12.03
2022-09-29T20:46:16.238Z,12.10
2022-09-29T20:48:44.151Z,12.30
2022-09-29T20:51:16.179Z,12.27
2022-09-29T20:53:45.054Z,12.14
2022-09-29T20:56:16.370Z,12.15
2022-09-29T20:58:45.270Z,11.86
2022-09-29T21:01:14.280Z,11.60
2022-09-29T21:03:41.058Z,11.60
2022-09-29T21:06:07.659Z,11.57
2022-09-29T21:08:34.351Z,11.70
2022-09-29T21:11:03.761Z,11.84
2022-09-29T21:13:32.096Z,11.75
2022-09-29T21:16:03.964Z,11.83
2022-09-29T21:18:31.608Z,11.79
2022-09-29T21:21:08.262Z,11.74
2022-09-29T21:23:36.936Z,11.57
2022-09-29T21:26:11.950Z,11.60
2022-09-29T21:28:38.594Z,11.54
2022-09-29T21:31:08.448Z,11.64
2022-09-29T21:33:37.002Z,11.48
2022-09-29T21:36:06.342Z,11.34
2022-09-29T21:38:36.206Z,11.23
2022-09-29T21:41:03.887Z,11.31
2022-09-29T21:43:31.782Z,11.16
2022-09-29T21:46:04.774Z,10.97
2022-09-29T21:48:33.196Z,10.99
2022-09-29T21:51:05.530Z,11.13
2022-09-29T21:53:33.714Z,11.26
2022-09-29T21:56:05.710Z,11.13
2022-09-29T21:58:32.867Z,11.13
2022-09-29T22:01:00.132Z,11.14
2022-09-29T22:03:31.022Z,11.27
2022-09-29T22:05:58.059Z,11.11
2022-09-29T22:08:25.378Z,11.15
2022-09-29T22:10:53.369Z,11.19
2022-09-29T22:13:22.748Z,11.26
2022-09-29T22:15:49.373Z,11.34
2022-09-29T22:18:16.040Z,11.39
2022-09-29T22:20:42.827Z,11.44
2022-09-29T22:23:09.448Z,11.44
2022-09-29T22:25:41.716Z,11.52
2022-09-29T22:28:08.414Z,11.57
2022-09-29T22:30:34.919Z,11.68
2022-09-29T22:33:01.999Z,11.62
2022-09-29T22:35:33.073Z,11.74
2022-09-29T22:37:59.829Z,11.77
2022-09-29T22:40:28.329Z,11.77
2022-09-29T22:42:55.213Z,11.79
2022-09-29T22:45:22.132Z,11.72
2022-09-29T22:47:48.777Z,11.75
2022-09-29T22:50:15.533Z,11.76
2022-09-29T22:52:42.551Z,11.67
2022-09-29T22:55:09.582Z,11.71
2022-09-29T22:57:36.252Z,11.69
2022-09-29T23:00:04.133Z,11.70
2022-09-29T23:02:30.958Z,11.56
2022-09-29T23:04:57.925Z,11.50
2022-09-29T23:07:24.639Z,11.52
2022-09-29T23:09:51.359Z,11.50
2022-09-29T23:12:18.553Z,11.31
2022-09-29T23:14:45.274Z,11.11
2022-09-29T23:17:11.898Z,11.09
2022-09-29T23:19:38.547Z,11.13
2022-09-29T23:22:05.308Z,11.17
2022-09-29T23:24:32.184Z,11.32
2022-09-29T23:27:00.594Z,11.35
2022-09-29T23:29:27.280Z,11.36
2022-09-29T23:31:53.910Z,11.21
2022-09-29T23:34:23.704Z,11.33
2022-09-29T23:36:51.337Z,11.26
2022-09-29T23:39:18.373Z,11.31
2022-09-29T23:41:49.897Z,11.27
2022-09-29T23:44:25.346Z,11.37
2022-09-29T23:46:54.174Z,11.33
2022-09-29T23:49:25.746Z,11.33
2022-09-29T23:51:55.796Z,11.28
2022-09-29T23:54:25.448Z,11.45
2022-09-29T23:56:53.838Z,11.53
2022-09-29T23:59:20.596Z,11.44
